Time;durP1;ratioP1;P1;durP2;ratioP2;P2;SDS_P1;SDS_P2;PMS_P1;PMS_P2;Temp;Humidity;BMP_temperature;BMP_pressure;BME280_temperature;BME280_humidity;BME280_pressure;Samples;Min_cycle;Max_cycle;Signal;HPM_P1;HPM_P2
2021/01/13 00:00:29;;;;;;;41.57;24.40;;;;;;;-0.52;84.35;98600.91;120748;1150;104396;-83
2021/01/13 00:03:10;;;;;;;44.63;26.97;;;;;;;-0.53;84.23;98608.63;120569;1150;104487;-83
2021/01/13 00:05:38;;;;;;;42.57;26.67;;;;;;;-0.51;84.11;98609.45;120621;1150;104317;-83
2021/01/13 00:08:05;;;;;;;43.90;27.07;;;;;;;-0.46;84.21;98603.38;120645;1151;104410;-83
2021/01/13 00:10:32;;;;;;;45.33;27.17;;;;;;;-0.41;84.27;98601.59;120604;1150;103085;-83
2021/01/13 00:13:04;;;;;;;42.37;25.93;;;;;;;-0.40;84.25;98605.84;120619;1151;104491;-82
2021/01/13 00:15:31;;;;;;;46.60;28.13;;;;;;;-0.40;84.45;98615.24;120618;1151;104403;-82
2021/01/13 00:17:58;;;;;;;43.20;26.10;;;;;;;-0.40;84.08;98612.69;120533;1153;104455;-84
2021/01/13 00:20:25;;;;;;;40.83;26.27;;;;;;;-0.39;84.24;98602.41;120575;1150;104429;-84
2021/01/13 00:22:52;;;;;;;45.67;26.10;;;;;;;-0.36;84.03;98606.64;120603;1150;104352;-82
2021/01/13 00:25:20;;;;;;;46.07;28.43;;;;;;;-0.34;84.45;98607.48;120558;1150;104893;-82
2021/01/13 00:27:48;;;;;;;46.17;29.27;;;;;;;-0.29;84.19;98609.98;120570;1151;104451;-83
2021/01/13 00:30:16;;;;;;;40.40;24.43;;;;;;;-0.26;84.23;98610.77;120557;1150;104503;-82
2021/01/13 00:32:45;;;;;;;45.47;27.17;;;;;;;-0.29;84.36;98605.70;120659;1151;104580;-84
2021/01/13 00:35:13;;;;;;;45.10;28.47;;;;;;;-0.22;84.31;98602.16;120580;1150;104327;-84
2021/01/13 00:37:41;;;;;;;47.07;28.93;;;;;;;-0.14;84.13;98602.91;120609;1151;104442;-83
2021/01/13 00:40:10;;;;;;;44.17;27.00;;;;;;;-0.09;83.99;98598.55;120596;1151;104487;-83
2021/01/13 00:42:48;;;;;;;45.63;27.60;;;;;;;-0.07;84.14;98601.09;120591;1151;104448;-83
2021/01/13 00:45:18;;;;;;;42.10;27.17;;;;;;;-0.05;83.97;98600.19;120727;1150;102516;-83
2021/01/13 00:47:50;;;;;;;46.67;28.73;;;;;;;0.01;84.24;98600.98;120614;1151;102506;-83
2021/01/13 00:50:18;;;;;;;45.60;28.53;;;;;;;0.06;84.13;98612.00;120596;1150;104507;-83
2021/01/13 00:52:49;;;;;;;47.63;27.70;;;;;;;0.07;84.08;98617.10;120611;1150;104779;-83
2021/01/13 00:55:19;;;;;;;39.03;25.53;;;;;;;0.09;83.68;98617.07;120510;1150;104473;-83
2021/01/13 00:57:51;;;;;;;41.63;26.20;;;;;;;0.12;83.81;98611.89;120626;1151;103072;-83
2021/01/13 01:00:21;;;;;;;43.33;26.63;;;;;;;0.12;83.68;98611.89;120609;1151;102375;-83
2021/01/13 01:03:02;;;;;;;40.27;23.23;;;;;;;0.09;83.96;98607.66;120641;1151;104320;-83
2021/01/13 01:05:29;;;;;;;45.07;27.27;;;;;;;0.07;84.10;98608.56;120575;1151;103047;-83
2021/01/13 01:07:57;;;;;;;40.70;26.05;;;;;;;0.10;83.85;98618.77;120591;1151;104494;-83
2021/01/13 01:10:30;;;;;;;41.13;25.77;;;;;;;0.08;83.62;98617.94;120585;1151;104472;-83
2021/01/13 01:12:58;;;;;;;41.13;27.17;;;;;;;0.05;83.53;98623.13;120615;1151;104393;-83
2021/01/13 01:15:26;;;;;;;42.47;25.83;;;;;;;0.05;83.94;98628.25;120683;1149;104370;-83
2021/01/13 01:17:54;;;;;;;41.50;26.43;;;;;;;0.06;83.54;98627.38;120692;1151;104407;-83
2021/01/13 01:20:22;;;;;;;39.30;24.60;;;;;;;0.08;83.78;98630.76;120594;1151;104396;-83
2021/01/13 01:22:59;;;;;;;40.48;25.88;;;;;;;0.13;83.69;98634.09;120640;1151;104354;-82
2021/01/13 01:25:30;;;;;;;39.60;24.67;;;;;;;0.17;83.72;98628.03;120618;1151;104480;-83
2021/01/13 01:28:00;;;;;;;39.20;25.43;;;;;;;0.15;83.53;98624.66;120707;1150;104548;-83
2021/01/13 01:30:30;;;;;;;44.43;27.03;;;;;;;0.16;83.77;98634.03;120607;1151;104456;-83
2021/01/13 01:32:58;;;;;;;38.97;25.53;;;;;;;0.19;83.80;98631.45;120506;1151;104511;-82
2021/01/13 01:35:26;;;;;;;40.37;26.37;;;;;;;0.20;83.67;98628.86;120596;1151;104460;-82
2021/01/13 01:37:53;;;;;;;40.57;25.27;;;;;;;0.23;83.92;98630.52;120563;1149;104308;-83
2021/01/13 01:40:21;;;;;;;38.63;24.50;;;;;;;0.26;83.59;98630.46;120546;1151;101879;-81
2021/01/13 01:42:51;;;;;;;40.73;25.43;;;;;;;0.28;83.72;98618.46;120674;1148;103238;-82
2021/01/13 01:45:23;;;;;;;40.97;27.07;;;;;;;0.29;83.73;98621.00;120684;1151;102869;-82
2021/01/13 01:48:00;;;;;;;42.87;26.37;;;;;;;0.32;83.92;98614.97;120653;1151;104408;-82
2021/01/13 01:50:31;;;;;;;42.20;25.97;;;;;;;0.34;83.48;98622.63;120607;1150;104311;-83
2021/01/13 01:53:09;;;;;;;46.43;26.57;;;;;;;0.37;83.56;98633.70;120624;1151;104391;-83
2021/01/13 01:55:49;;;;;;;46.07;26.83;;;;;;;0.37;83.48;98628.58;120599;1151;104492;-83
2021/01/13 01:58:25;;;;;;;46.37;26.90;;;;;;;0.35;83.62;98625.16;120580;1150;104473;-83
2021/01/13 02:01:00;;;;;;;42.60;25.45;;;;;;;0.34;83.83;98638.86;120689;1150;102807;-83
2021/01/13 02:03:40;;;;;;;38.70;23.80;;;;;;;0.32;83.59;98629.50;120587;1151;104522;-82
2021/01/13 02:06:10;;;;;;;43.87;25.70;;;;;;;0.34;83.68;98638.02;120628;1151;102517;-82
2021/01/13 02:08:39;;;;;;;40.27;24.73;;;;;;;0.37;83.96;98628.58;120649;1151;103107;-82
2021/01/13 02:11:17;;;;;;;42.47;26.13;;;;;;;0.36;83.84;98641.39;120617;1150;104258;-81
2021/01/13 02:13:47;;;;;;;42.37;27.07;;;;;;;0.36;83.99;98637.14;120590;1150;101938;-82
2021/01/13 02:16:17;;;;;;;40.97;25.27;;;;;;;0.40;83.86;98633.65;120621;1150;104509;-83
2021/01/13 02:18:47;;;;;;;37.23;23.60;;;;;;;0.42;83.80;98626.77;120619;1150;104310;-82
2021/01/13 02:21:17;;;;;;;40.63;25.27;;;;;;;0.47;83.82;98634.38;120655;1151;104425;-82
2021/01/13 02:23:44;;;;;;;40.85;24.35;;;;;;;0.47;83.77;98639.51;120573;1151;104484;-83
2021/01/13 02:26:36;;;;;;;40.58;25.65;;;;;;;0.44;83.96;98632.72;120587;1151;104308;-83
2021/01/13 02:29:16;;;;;;;38.50;25.20;;;;;;;0.44;83.84;98629.31;120729;1150;104524;-82
2021/01/13 02:31:54;;;;;;;34.47;22.57;;;;;;;0.48;83.80;98638.63;120675;1154;102564;-82
2021/01/13 02:34:44;;;;;;;36.73;24.50;;;;;;;0.49;84.07;98641.17;120625;1150;104423;-83
2021/01/13 02:37:33;;;;;;;36.40;22.83;;;;;;;0.46;84.02;98641.23;120568;1151;104416;-82
2021/01/13 02:40:10;;;;;;;33.65;21.85;;;;;;;0.47;83.81;98642.07;120577;1149;104311;-83
2021/01/13 02:42:46;;;;;;;33.38;21.85;;;;;;;0.47;83.95;98634.38;120598;1150;104796;-83
2021/01/13 02:45:17;;;;;;;34.93;20.43;;;;;;;0.45;83.52;98639.53;120664;1151;104417;-83
2021/01/13 02:47:56;;;;;;;30.70;19.07;;;;;;;0.42;83.37;98649.85;120648;1151;104518;-83
2021/01/13 02:50:27;;;;;;;26.27;17.03;;;;;;;0.41;83.72;98662.70;120671;1150;104429;-82
2021/01/13 02:53:24;;;;;;;22.23;15.63;;;;;;;0.37;83.86;98669.61;120633;1151;104383;-82
2021/01/13 02:56:16;;;;;;;23.47;15.37;;;;;;;0.35;83.55;98661.06;120675;1151;104479;-83
2021/01/13 02:58:51;;;;;;;22.50;14.33;;;;;;;0.31;83.60;98672.25;120595;1151;104455;-82
2021/01/13 03:01:18;;;;;;;16.90;12.17;;;;;;;0.26;83.75;98669.77;120575;1150;104448;-83
2021/01/13 03:03:47;;;;;;;18.97;12.50;;;;;;;0.22;83.73;98670.70;120572;1151;104504;-82
2021/01/13 03:06:16;;;;;;;16.87;11.17;;;;;;;0.24;83.71;98668.11;120602;1151;104325;-82
2021/01/13 03:08:54;;;;;;;17.90;11.57;;;;;;;0.23;83.47;98672.39;120601;1150;104409;-82
2021/01/13 03:11:22;;;;;;;18.07;11.37;;;;;;;0.18;83.51;98669.06;120624;1150;104455;-82
2021/01/13 03:13:55;;;;;;;15.90;11.50;;;;;;;0.17;83.54;98674.18;120642;1150;103103;-82
2021/01/13 03:16:22;;;;;;;16.07;10.53;;;;;;;0.16;84.00;98675.05;120582;1151;104806;-82
2021/01/13 03:19:05;;;;;;;18.60;11.03;;;;;;;0.17;84.00;98674.18;120513;1151;104413;-82
2021/01/13 03:21:46;;;;;;;16.67;10.30;;;;;;;0.19;83.82;98672.47;120637;1153;104361;-83
2021/01/13 03:24:27;;;;;;;16.40;11.95;;;;;;;0.19;83.81;98691.27;120584;1151;104322;-82
2021/01/13 03:26:55;;;;;;;15.03;10.10;;;;;;;0.15;83.74;98684.46;120634;1150;104385;-82
2021/01/13 03:29:26;;;;;;;13.13;9.40;;;;;;;0.14;83.67;98694.74;120647;1149;104369;-82
2021/01/13 03:32:13;;;;;;;12.93;8.67;;;;;;;0.11;83.60;98702.48;120680;1151;104298;-82
2021/01/13 03:35:10;;;;;;;14.17;9.50;;;;;;;0.04;83.64;98691.48;120652;1151;104354;-83
2021/01/13 03:38:00;;;;;;;12.20;8.67;;;;;;;-0.04;83.50;98698.42;120736;1150;102506;-81
2021/01/13 03:40:32;;;;;;;11.70;8.43;;;;;;;-0.08;83.69;98707.88;120543;1150;103270;-83
2021/01/13 03:43:00;;;;;;;10.03;8.23;;;;;;;-0.07;83.54;98714.69;120565;1150;104473;-83
2021/01/13 03:45:38;;;;;;;10.80;8.10;;;;;;;-0.12;83.29;98720.76;120584;1151;104427;-83
2021/01/13 03:48:28;;;;;;;14.47;9.20;;;;;;;-0.16;83.25;98714.84;120637;1151;104436;-82
2021/01/13 03:50:56;;;;;;;10.03;7.50;;;;;;;-0.22;83.33;98709.77;120581;1151;104374;-82
2021/01/13 03:53:27;;;;;;;9.87;7.57;;;;;;;-0.25;83.41;98720.06;120707;1150;103161;-82
2021/01/13 03:55:57;;;;;;;9.17;6.97;;;;;;;-0.25;82.91;98721.78;120565;1151;104354;-83
2021/01/13 03:58:30;;;;;;;9.27;7.40;;;;;;;-0.32;83.05;98718.46;120608;1150;104419;-83
2021/01/13 04:01:03;;;;;;;8.73;6.90;;;;;;;-0.36;83.01;98716.78;120545;1151;104396;-83
2021/01/13 04:03:37;;;;;;;9.93;6.43;;;;;;;-0.42;83.41;98722.84;120665;1151;104111;-81
2021/01/13 04:06:12;;;;;;;7.77;6.20;;;;;;;-0.42;83.17;98716.88;120630;1151;103754;-81
2021/01/13 04:08:41;;;;;;;10.33;6.63;;;;;;;-0.44;83.05;98721.17;120598;1151;105525;-82
2021/01/13 04:11:14;;;;;;;10.07;6.67;;;;;;;-0.47;82.94;98731.45;120614;1150;104444;-82
2021/01/13 04:13:42;;;;;;;6.53;5.57;;;;;;;-0.50;83.04;98739.18;120620;1151;104381;-83
2021/01/13 04:16:12;;;;;;;8.90;6.20;;;;;;;-0.52;83.15;98748.59;120642;1151;104444;-83
2021/01/13 04:18:41;;;;;;;8.13;6.00;;;;;;;-0.53;83.26;98747.75;120562;1151;104402;-83
2021/01/13 04:21:11;;;;;;;7.33;5.90;;;;;;;-0.53;83.06;98749.47;120586;1151;104588;-83
2021/01/13 04:23:38;;;;;;;10.87;6.47;;;;;;;-0.53;83.24;98754.59;120604;1151;104382;-83
2021/01/13 04:26:06;;;;;;;9.17;6.50;;;;;;;-0.52;83.04;98762.25;120596;1150;104264;-83
2021/01/13 04:28:34;;;;;;;10.50;6.40;;;;;;;-0.49;82.91;98761.36;120597;1150;104936;-83
2021/01/13 04:31:03;;;;;;;8.87;6.00;;;;;;;-0.48;83.07;98758.78;120636;1151;104648;-83
2021/01/13 04:33:31;;;;;;;8.73;5.73;;;;;;;-0.49;82.96;98763.92;120627;1153;104519;-83
2021/01/13 04:35:59;;;;;;;9.50;6.10;;;;;;;-0.53;82.58;98757.14;120648;1151;102701;-83
2021/01/13 04:38:29;;;;;;;8.27;5.73;;;;;;;-0.55;82.80;98756.29;120611;1151;104470;-83
2021/01/13 04:41:07;;;;;;;7.73;4.90;;;;;;;-0.62;81.88;98758.93;120684;1151;104301;-83
2021/01/13 04:44:01;;;;;;;8.43;5.53;;;;;;;-0.64;82.36;98777.73;120641;1151;104343;-83
2021/01/13 04:46:32;;;;;;;6.70;5.33;;;;;;;-0.65;82.11;98776.89;120688;1150;104191;-82
2021/01/13 04:49:20;;;;;;;7.27;5.40;;;;;;;-0.69;81.90;98785.48;120701;1150;104474;-80
2021/01/13 04:51:50;;;;;;;10.33;6.10;;;;;;;-0.70;81.84;98798.30;120630;1151;104478;-82
2021/01/13 04:54:19;;;;;;;9.67;5.47;;;;;;;-0.71;81.79;98797.45;120626;1151;102884;-82
2021/01/13 04:57:17;;;;;;;8.57;6.00;;;;;;;-0.71;82.29;98797.45;120649;1150;104322;-81
2021/01/13 05:00:07;;;;;;;8.40;5.80;;;;;;;-0.71;82.09;98792.33;120590;1151;104385;-82
2021/01/13 05:02:43;;;;;;;9.30;5.60;;;;;;;-0.74;81.68;98796.60;120595;1151;104404;-82
2021/01/13 05:05:21;;;;;;;8.63;5.93;;;;;;;-0.78;81.57;98795.80;120565;1151;103171;-81
2021/01/13 05:08:20;;;;;;;9.70;5.50;;;;;;;-0.82;81.61;98789.02;120610;1151;102918;-82
2021/01/13 05:10:51;;;;;;;6.10;4.60;;;;;;;-0.85;81.47;98788.20;120675;1151;104332;-82
2021/01/13 05:13:22;;;;;;;6.97;4.30;;;;;;;-0.86;81.62;98802.71;120610;1151;104371;-81
2021/01/13 05:15:57;;;;;;;4.97;4.03;;;;;;;-0.87;81.22;98813.81;120649;1151;104436;-83
2021/01/13 05:18:43;;;;;;;5.77;4.10;;;;;;;-0.87;81.28;98821.48;120673;1151;104418;-83
2021/01/13 05:21:23;;;;;;;5.80;3.90;;;;;;;-0.88;80.33;98827.47;120661;1150;104423;-82
2021/01/13 05:23:54;;;;;;;6.37;3.73;;;;;;;-0.92;80.54;98829.19;120592;1150;104463;-82
2021/01/13 05:26:26;;;;;;;6.90;4.07;;;;;;;-0.92;80.75;98829.19;120704;1151;104399;-82
2021/01/13 05:29:12;;;;;;;7.50;4.43;;;;;;;-0.92;80.48;98836.02;120634;1151;104406;-82
2021/01/13 05:31:43;;;;;;;7.27;4.03;;;;;;;-0.94;80.57;98835.19;120734;1150;104348;-82
2021/01/13 05:34:17;;;;;;;6.70;4.37;;;;;;;-0.94;80.38;98847.98;120632;1151;104426;-82
2021/01/13 05:37:08;;;;;;;6.13;4.50;;;;;;;-0.93;81.02;98849.67;120640;1151;104404;-82
2021/01/13 05:39:35;;;;;;;6.33;4.20;;;;;;;-0.96;80.86;98847.15;120567;1151;104351;-82
2021/01/13 05:42:03;;;;;;;7.37;4.62;;;;;;;-0.95;80.59;98854.81;120633;1151;104335;-82
2021/01/13 05:44:31;;;;;;;6.55;3.83;;;;;;;-0.94;80.68;98865.89;120620;1150;104310;-83
2021/01/13 05:47:04;;;;;;;10.33;5.03;;;;;;;-0.94;81.22;98866.74;120589;1151;102379;-82
2021/01/13 05:49:32;;;;;;;7.13;4.80;;;;;;;-0.93;80.59;98867.59;120609;1151;104432;-82
2021/01/13 05:52:10;;;;;;;8.53;4.90;;;;;;;-0.89;81.33;98869.29;120614;1151;104493;-82
2021/01/13 05:54:38;;;;;;;6.83;4.80;;;;;;;-0.85;81.25;98877.78;120663;1150;104402;-83
2021/01/13 05:57:06;;;;;;;9.20;4.77;;;;;;;-0.84;81.29;98885.45;120647;1150;104503;-83
2021/01/13 05:59:34;;;;;;;9.67;5.30;;;;;;;-0.83;81.33;98891.41;120609;1151;103083;-83
2021/01/13 06:02:03;;;;;;;6.07;4.87;;;;;;;-0.82;81.22;98887.99;120646;1151;104418;-83
2021/01/13 06:04:35;;;;;;;8.93;5.40;;;;;;;-0.78;81.49;98890.51;120643;1151;104462;-83
2021/01/13 06:07:14;;;;;;;6.40;5.27;;;;;;;-0.75;81.38;98889.63;120599;1151;104392;-82
2021/01/13 06:09:43;;;;;;;10.23;5.67;;;;;;;-0.73;81.07;98886.19;120764;1150;104291;-82
2021/01/13 06:12:18;;;;;;;9.30;5.43;;;;;;;-0.73;80.92;98883.63;120651;1151;104426;-82
2021/01/13 06:14:48;;;;;;;7.40;5.20;;;;;;;-0.72;80.88;98897.28;120615;1151;103180;-82
2021/01/13 06:17:21;;;;;;;7.40;5.37;;;;;;;-0.73;81.31;98896.43;120558;1151;104395;-82
2021/01/13 06:19:52;;;;;;;8.43;5.27;;;;;;;-0.72;80.56;98898.16;120669;1151;104326;-82
2021/01/13 06:22:33;;;;;;;6.77;5.10;;;;;;;-0.76;80.30;98906.70;120625;1151;105497;-82
2021/01/13 06:25:07;;;;;;;6.27;4.67;;;;;;;-0.83;80.01;98905.06;120569;1150;104308;-82
2021/01/13 06:27:57;;;;;;;6.63;4.77;;;;;;;-0.92;80.24;98915.36;120650;1151;104404;-82
2021/01/13 06:30:29;;;;;;;6.60;4.97;;;;;;;-0.95;80.21;98912.82;120578;1150;102501;-82
2021/01/13 06:33:09;;;;;;;9.73;4.80;;;;;;;-0.98;80.00;98916.26;120654;1150;104221;-82
2021/01/13 06:35:42;;;;;;;6.83;4.87;;;;;;;-1.00;80.00;98917.13;120669;1151;104359;-83
2021/01/13 06:38:29;;;;;;;6.53;4.70;;;;;;;-1.02;79.92;98911.18;120636;1150;104292;-82
2021/01/13 06:41:02;;;;;;;6.90;4.27;;;;;;;-1.02;79.83;98917.15;120689;1150;104348;-82
2021/01/13 06:43:29;;;;;;;5.40;3.90;;;;;;;-1.01;79.84;98923.11;120671;1151;103041;-83
2021/01/13 06:45:57;;;;;;;7.57;4.60;;;;;;;-1.01;79.58;98923.11;120676;1150;104428;-83
2021/01/13 06:48:29;;;;;;;5.90;4.40;;;;;;;-1.01;79.79;98925.67;120610;1151;104380;-81
2021/01/13 06:50:58;;;;;;;5.03;4.20;;;;;;;-1.03;79.67;98927.39;120544;1150;104398;-81
2021/01/13 06:53:36;;;;;;;8.53;4.60;;;;;;;-1.03;79.76;98927.39;120624;1151;104414;-82
2021/01/13 06:56:11;;;;;;;8.77;4.70;;;;;;;-1.01;79.68;98928.23;120637;1151;104827;-82
2021/01/13 06:58:39;;;;;;;6.30;4.53;;;;;;;-0.99;79.97;98936.75;120596;1151;104394;-82
2021/01/13 07:01:07;;;;;;;8.13;4.67;;;;;;;-0.97;79.59;98943.55;120619;1150;104293;-82
2021/01/13 07:03:34;;;;;;;7.83;5.30;;;;;;;-0.93;79.79;98942.66;120557;1151;104345;-82
2021/01/13 07:06:08;;;;;;;8.90;5.03;;;;;;;-0.96;79.70;98944.39;120561;1151;104428;-83
2021/01/13 07:08:36;;;;;;;6.27;4.90;;;;;;;-0.94;79.87;98937.55;120588;1151;104355;-83
2021/01/13 07:11:10;;;;;;;10.10;5.73;;;;;;;-0.94;79.47;98947.80;120600;1151;102515;-83
2021/01/13 07:13:47;;;;;;;8.67;5.50;;;;;;;-0.89;79.95;98956.31;120649;1151;104395;-83
2021/01/13 07:16:15;;;;;;;8.83;5.60;;;;;;;-0.83;79.86;98963.09;120612;1151;104365;-83
2021/01/13 07:18:46;;;;;;;9.20;5.63;;;;;;;-0.81;79.93;98964.77;120548;1151;102715;-83
2021/01/13 07:21:13;;;;;;;7.23;5.50;;;;;;;-0.78;79.79;98974.98;120545;1151;104519;-83
2021/01/13 07:23:46;;;;;;;10.20;6.33;;;;;;;-0.76;80.02;98974.97;120563;1150;105542;-83
2021/01/13 07:26:14;;;;;;;15.17;9.57;;;;;;;-0.72;79.79;98974.97;120623;1150;103303;-82
2021/01/13 07:28:42;;;;;;;10.33;7.00;;;;;;;-0.69;79.94;98969.81;120618;1151;104417;-82
2021/01/13 07:31:09;;;;;;;10.13;6.40;;;;;;;-0.65;79.67;98970.63;120619;1151;104380;-82
2021/01/13 07:33:41;;;;;;;12.68;7.00;;;;;;;-0.61;79.50;98973.16;120638;1150;104499;-82
2021/01/13 07:36:17;;;;;;;9.37;6.90;;;;;;;-0.58;79.69;98979.95;120596;1151;104237;-83
2021/01/13 07:38:48;;;;;;;9.83;6.62;;;;;;;-0.59;79.44;98978.26;120652;1150;104876;-82
2021/01/13 07:41:50;;;;;;;12.70;7.00;;;;;;;-0.57;79.80;98988.48;120658;1151;104319;-82
2021/01/13 07:44:40;;;;;;;13.20;8.03;;;;;;;-0.58;79.47;98986.79;120617;1149;104323;-82
2021/01/13 07:47:27;;;;;;;15.13;8.90;;;;;;;-0.58;79.71;98976.55;120660;1150;104340;-82
2021/01/13 07:50:06;;;;;;;11.50;7.57;;;;;;;-0.61;79.79;98988.52;120647;1149;104300;-83
2021/01/13 07:52:42;;;;;;;14.87;7.77;;;;;;;-0.56;79.77;98995.31;120612;1151;104531;-82
2021/01/13 07:55:16;;;;;;;12.57;8.53;;;;;;;-0.53;79.74;99005.55;120654;1150;104352;-83
2021/01/13 07:57:53;;;;;;;12.50;8.13;;;;;;;-0.50;79.75;99002.97;120659;1150;104366;-83
2021/01/13 08:00:56;;;;;;;13.37;8.50;;;;;;;-0.47;79.58;99002.94;120562;1151;104470;-83
2021/01/13 08:04:04;;;;;;;16.40;8.90;;;;;;;-0.45;79.66;99003.77;120640;1151;105827;-82
2021/01/13 08:06:45;;;;;;;;;;;;;;;-0.46;79.86;98997.80;120673;1151;104342;-82
2021/01/13 08:09:18;;;;;;;16.30;9.73;;;;;;;-0.44;79.82;99003.76;120593;1151;103833;-82
2021/01/13 08:12:03;;;;;;;15.67;9.87;;;;;;;-0.42;79.48;99001.19;120640;1150;104484;-81
2021/01/13 08:15:06;;;;;;;16.73;9.00;;;;;;;-0.37;79.31;99000.27;120654;1151;104350;-82
2021/01/13 08:18:02;;;;;;;13.73;8.63;;;;;;;-0.34;79.66;99001.98;120621;1151;102376;-82
2021/01/13 08:20:48;;;;;;;15.95;9.30;;;;;;;-0.34;79.08;99002.84;120611;1150;104316;-82
2021/01/13 08:23:26;;;;;;;15.50;10.00;;;;;;;-0.32;79.15;99002.82;120684;1151;104288;-83
2021/01/13 08:25:56;;;;;;;16.77;9.63;;;;;;;-0.34;79.10;98999.42;120635;1151;104533;-83
2021/01/13 08:28:24;;;;;;;15.27;9.80;;;;;;;-0.30;79.29;98998.53;120611;1151;104354;-82
2021/01/13 08:30:52;;;;;;;14.37;9.97;;;;;;;-0.28;79.31;99007.05;120622;1151;101905;-83
2021/01/13 08:33:25;;;;;;;14.40;9.90;;;;;;;-0.29;79.55;99015.59;120573;1151;104417;-83
2021/01/13 08:36:01;;;;;;;16.73;10.50;;;;;;;-0.30;79.28;99013.91;120568;1150;104461;-83
2021/01/13 08:38:28;;;;;;;17.03;11.07;;;;;;;-0.34;79.49;99012.23;120637;1151;104349;-83
2021/01/13 08:40:56;;;;;;;18.80;10.60;;;;;;;-0.39;79.35;99004.56;120572;1150;104366;-83
2021/01/13 08:43:24;;;;;;;17.73;10.93;;;;;;;-0.43;79.54;99012.29;120552;1151;102674;-83
2021/01/13 08:45:54;;;;;;;17.83;11.90;;;;;;;-0.43;79.60;99000.33;120578;1151;104413;-82
2021/01/13 08:48:22;;;;;;;19.30;12.20;;;;;;;-0.35;80.05;99010.53;120575;1150;104320;-83
2021/01/13 08:51:05;;;;;;;17.90;11.37;;;;;;;-0.32;79.81;99015.63;120581;1151;104513;-82
2021/01/13 08:53:33;;;;;;;20.43;12.00;;;;;;;-0.32;80.16;99021.60;120544;1150;104464;-82
2021/01/13 08:56:02;;;;;;;23.23;13.30;;;;;;;-0.29;80.30;99030.12;120592;1150;104313;-82
2021/01/13 08:58:33;;;;;;;22.70;14.07;;;;;;;-0.25;80.26;99021.55;120742;1150;104388;-82
2021/01/13 09:01:01;;;;;;;23.87;14.50;;;;;;;-0.25;80.19;99027.52;120587;1151;104371;-84
2021/01/13 09:03:35;;;;;;;24.57;14.80;;;;;;;-0.23;80.32;99030.06;120599;1151;104418;-83
2021/01/13 09:06:36;;;;;;;24.57;14.47;;;;;;;-0.18;80.56;99024.06;120570;1150;104193;-83
2021/01/13 09:09:10;;;;;;;23.23;14.80;;;;;;;-0.13;80.51;99026.58;120017;1153;104441;-83
2021/01/13 09:11:39;;;;;;;26.80;16.40;;;;;;;-0.11;80.71;99033.38;119961;1154;104358;-83
2021/01/13 09:14:19;;;;;;;27.03;16.43;;;;;;;-0.13;80.58;99037.67;120078;1154;104507;-83
2021/01/13 09:16:51;;;;;;;29.87;18.03;;;;;;;-0.11;80.57;99043.63;120000;1152;103167;-83
2021/01/13 09:19:30;;;;;;;30.93;17.33;;;;;;;-0.07;80.52;99044.45;119828;1154;104777;-83
2021/01/13 09:21:59;;;;;;;29.30;16.90;;;;;;;-0.02;80.67;99035.00;119969;1153;104481;-83
2021/01/13 09:24:36;;;;;;;27.87;17.50;;;;;;;0.06;80.84;99038.36;120033;1154;104192;-83
2021/01/13 09:27:10;;;;;;;32.90;18.83;;;;;;;0.10;80.78;99045.16;120011;1154;104495;-87
2021/01/13 09:29:54;;;;;;;28.97;17.33;;;;;;;0.15;80.37;99037.41;119984;1153;104959;-84
2021/01/13 09:32:23;;;;;;;29.20;17.00;;;;;;;0.15;80.35;99030.56;119991;1152;104739;-84
2021/01/13 09:34:55;;;;;;;29.10;17.23;;;;;;;0.23;80.53;99036.48;119880;1154;105001;-84
2021/01/13 09:37:24;;;;;;;28.70;16.23;;;;;;;0.27;80.36;99037.30;120037;1154;104674;-83
2021/01/13 09:39:57;;;;;;;28.37;15.80;;;;;;;0.32;80.43;99040.66;120028;1154;104368;-83
2021/01/13 09:42:39;;;;;;;23.50;14.77;;;;;;;0.36;80.29;99042.34;119956;1154;104421;-84
2021/01/13 09:45:08;;;;;;;25.47;14.80;;;;;;;0.37;80.32;99044.05;120196;1151;104252;-84
2021/01/13 09:47:36;;;;;;;22.63;13.93;;;;;;;0.40;80.33;99049.14;120640;1150;104436;-84
2021/01/13 09:50:11;;;;;;;22.17;13.23;;;;;;;0.44;80.22;99048.23;120573;1150;104445;-84
2021/01/13 09:52:42;;;;;;;26.20;14.73;;;;;;;0.45;80.10;99046.52;120621;1151;104962;-83
2021/01/13 09:55:11;;;;;;;20.67;12.97;;;;;;;0.41;79.72;99040.58;120659;1151;104416;-83
2021/01/13 09:57:40;;;;;;;17.30;11.47;;;;;;;0.37;79.00;99038.92;120632;1151;103055;-83
2021/01/13 10:00:09;;;;;;;17.57;10.67;;;;;;;0.31;79.14;99044.09;120633;1151;104471;-83
2021/01/13 10:02:42;;;;;;;18.10;11.50;;;;;;;0.31;79.11;99044.09;120614;1151;104578;-83
2021/01/13 10:05:11;;;;;;;20.83;11.83;;;;;;;0.33;79.71;99044.92;120665;1151;104897;-83
2021/01/13 10:07:40;;;;;;;23.20;12.13;;;;;;;0.34;79.42;99038.08;120598;1150;104400;-83
2021/01/13 10:10:08;;;;;;;22.80;13.57;;;;;;;0.34;79.43;99044.05;120595;1151;104461;-84
2021/01/13 10:12:41;;;;;;;21.57;12.83;;;;;;;0.34;79.53;99044.05;120656;1151;104273;-84
2021/01/13 10:15:13;;;;;;;25.50;13.70;;;;;;;0.38;79.97;99050.88;120689;1150;104329;-84
2021/01/13 10:17:42;;;;;;;27.63;14.43;;;;;;;0.42;79.62;99047.41;120662;1151;107650;-83
2021/01/13 10:20:24;;;;;;;23.57;13.70;;;;;;;0.45;79.75;99043.95;120620;1150;104623;-84
2021/01/13 10:22:53;;;;;;;23.43;12.27;;;;;;;0.45;79.49;99044.80;120594;1151;104419;-84
2021/01/13 10:25:29;;;;;;;23.80;12.73;;;;;;;0.45;79.42;99041.39;120596;1151;104484;-83
2021/01/13 10:27:59;;;;;;;17.57;10.32;;;;;;;0.46;79.24;99043.09;120644;1150;104938;-84
2021/01/13 10:30:27;;;;;;;19.10;11.80;;;;;;;0.45;79.40;99047.37;120625;1150;104246;-82
2021/01/13 10:32:57;;;;;;;17.33;11.47;;;;;;;0.47;79.36;99043.06;120664;1151;104365;-83
2021/01/13 10:35:45;;;;;;;16.27;10.17;;;;;;;0.49;79.38;99045.61;120752;1150;105523;-83
2021/01/13 10:38:21;;;;;;;17.00;9.90;;;;;;;0.52;79.36;99043.86;120677;1151;104314;-83
2021/01/13 10:40:51;;;;;;;17.23;9.77;;;;;;;0.52;79.10;99054.12;120715;1150;104961;-83
2021/01/13 10:43:21;;;;;;;14.80;9.40;;;;;;;0.55;79.34;99051.55;120754;1150;104389;-83
2021/01/13 10:45:58;;;;;;;16.13;9.77;;;;;;;0.58;78.96;99055.79;120648;1151;104362;-83
2021/01/13 10:48:26;;;;;;;18.90;9.73;;;;;;;0.62;79.20;99060.02;120577;1151;104796;-84
2021/01/13 10:50:59;;;;;;;17.23;9.87;;;;;;;0.64;79.22;99068.55;120643;1151;103268;-84
2021/01/13 10:53:32;;;;;;;18.17;10.57;;;;;;;0.69;79.05;99064.20;120649;1149;104313;-84
2021/01/13 10:56:15;;;;;;;15.80;9.53;;;;;;;0.76;78.87;99054.73;120647;1151;102344;-83
2021/01/13 10:58:45;;;;;;;16.83;8.90;;;;;;;0.74;78.85;99059.04;120596;1149;104445;-84
2021/01/13 11:01:16;;;;;;;16.70;8.90;;;;;;;0.73;78.53;99054.77;120509;1151;103566;-83
2021/01/13 11:03:44;;;;;;;16.60;8.87;;;;;;;0.72;78.44;99056.49;120549;1151;104311;-81
2021/01/13 11:06:25;;;;;;;16.73;9.03;;;;;;;0.71;78.64;99048.78;120560;1151;104436;-83
2021/01/13 11:08:53;;;;;;;17.27;9.50;;;;;;;0.73;78.52;99052.21;120603;1150;103871;-83
2021/01/13 11:11:20;;;;;;;15.53;8.77;;;;;;;0.77;78.61;99054.72;120645;1150;104492;-83
2021/01/13 11:13:48;;;;;;;17.63;8.70;;;;;;;0.78;78.56;99055.56;120590;1151;104364;-83
2021/01/13 11:16:15;;;;;;;15.17;9.73;;;;;;;0.73;78.44;99057.34;120573;1151;104378;-83
2021/01/13 11:18:43;;;;;;;15.80;8.47;;;;;;;0.66;78.12;99048.84;120577;1151;104487;-83
2021/01/13 11:21:11;;;;;;;17.20;9.53;;;;;;;0.62;78.66;99047.19;120573;1150;104316;-82
2021/01/13 11:23:44;;;;;;;14.70;8.93;;;;;;;0.65;78.99;99052.28;120546;1150;104433;-82
2021/01/13 11:26:12;;;;;;;14.63;8.77;;;;;;;0.69;78.89;99051.37;120579;1151;104457;-82
2021/01/13 11:28:43;;;;;;;18.63;8.87;;;;;;;0.68;78.68;99054.80;120670;1151;104359;-82
2021/01/13 11:31:11;;;;;;;17.93;9.33;;;;;;;0.66;78.61;99051.41;120584;1151;104355;-83
2021/01/13 11:33:45;;;;;;;14.20;8.57;;;;;;;0.63;78.59;99048.03;120568;1151;104471;-83
2021/01/13 11:36:41;;;;;;;13.87;8.27;;;;;;;0.63;78.60;99054.02;120520;1151;103156;-87
2021/01/13 11:39:20;;;;;;;15.63;8.77;;;;;;;0.65;78.61;99048.86;120541;1151;104476;-83
2021/01/13 11:42:06;;;;;;;15.80;8.63;;;;;;;0.67;78.87;99045.41;120556;1151;102458;-83